METAR Data
IDs: Format: Raw Decoded Include TAF

Data at: 2141 UTC 02 Aug 2021

FAEL 021800Z 03006KT 9999 FEW025 14/11 Q1028